sensor_id;sensor_type;location;lat;lon;timestamp;pressure;altitude;pressure_sealevel;temperature;humidity
47983;BME280;33751;50.816;-1.214;2022-11-15T00:00:45;100382.68;;;15.00;100.00
47983;BME280;33751;50.816;-1.214;2022-11-15T00:03:13;100381.36;;;15.17;100.00
47983;BME280;33751;50.816;-1.214;2022-11-15T00:05:41;100380.29;;;15.01;100.00
47983;BME280;33751;50.816;-1.214;2022-11-15T00:08:07;100377.95;;;15.11;100.00
47983;BME280;33751;50.816;-1.214;2022-11-15T00:10:34;100378.36;;;15.01;100.00
47983;BME280;33751;50.816;-1.214;2022-11-15T00:13:05;100373.76;;;15.41;100.00
47983;BME280;33751;50.816;-1.214;2022-11-15T00:15:34;100369.78;;;15.11;100.00
47983;BME280;33751;50.816;-1.214;2022-11-15T00:18:01;100358.43;;;14.93;100.00
47983;BME280;33751;50.816;-1.214;2022-11-15T00:20:29;100360.59;;;15.23;100.00
47983;BME280;33751;50.816;-1.214;2022-11-15T00:22:56;100356.89;;;15.36;100.00
47983;BME280;33751;50.816;-1.214;2022-11-15T00:25:23;100356.70;;;15.01;100.00
47983;BME280;33751;50.816;-1.214;2022-11-15T00:27:50;100354.07;;;15.20;100.00
47983;BME280;33751;50.816;-1.214;2022-11-15T00:30:17;100344.86;;;15.58;100.00
47983;BME280;33751;50.816;-1.214;2022-11-15T00:32:43;100333.12;;;15.19;100.00
47983;BME280;33751;50.816;-1.214;2022-11-15T00:35:10;100309.00;;;15.05;100.00
47983;BME280;33751;50.816;-1.214;2022-11-15T00:37:36;100298.29;;;14.97;100.00
47983;BME280;33751;50.816;-1.214;2022-11-15T00:40:04;100292.72;;;15.32;100.00
47983;BME280;33751;50.816;-1.214;2022-11-15T00:42:31;100289.67;;;15.33;100.00
47983;BME280;33751;50.816;-1.214;2022-11-15T00:44:57;100287.39;;;15.34;100.00
47983;BME280;33751;50.816;-1.214;2022-11-15T00:47:24;100278.96;;;15.65;100.00
47983;BME280;33751;50.816;-1.214;2022-11-15T00:49:50;100275.72;;;15.17;100.00
47983;BME280;33751;50.816;-1.214;2022-11-15T00:52:18;100280.24;;;15.00;100.00
47983;BME280;33751;50.816;-1.214;2022-11-15T00:54:44;100274.68;;;15.08;100.00
47983;BME280;33751;50.816;-1.214;2022-11-15T00:57:11;100274.56;;;15.56;100.00
47983;BME280;33751;50.816;-1.214;2022-11-15T00:59:37;100267.54;;;15.39;100.00
47983;BME280;33751;50.816;-1.214;2022-11-15T01:02:04;100261.85;;;15.31;100.00
47983;BME280;33751;50.816;-1.214;2022-11-15T01:04:31;100248.93;;;15.18;100.00
47983;BME280;33751;50.816;-1.214;2022-11-15T01:06:57;100245.58;;;15.43;100.00
47983;BME280;33751;50.816;-1.214;2022-11-15T01:09:25;100243.57;;;15.14;100.00
47983;BME280;33751;50.816;-1.214;2022-11-15T01:11:52;100233.38;;;15.53;100.00
47983;BME280;33751;50.816;-1.214;2022-11-15T01:14:19;100230.99;;;15.23;100.00
47983;BME280;33751;50.816;-1.214;2022-11-15T01:16:45;100227.10;;;15.24;100.00
47983;BME280;33751;50.816;-1.214;2022-11-15T01:19:11;100225.77;;;15.51;100.00
47983;BME280;33751;50.816;-1.214;2022-11-15T01:21:38;100206.80;;;15.27;100.00
47983;BME280;33751;50.816;-1.214;2022-11-15T01:24:06;100204.32;;;15.26;100.00
47983;BME280;33751;50.816;-1.214;2022-11-15T01:26:33;100202.34;;;14.75;100.00
47983;BME280;33751;50.816;-1.214;2022-11-15T01:29:00;100192.44;;;15.14;100.00
47983;BME280;33751;50.816;-1.214;2022-11-15T01:31:27;100184.99;;;15.38;100.00
47983;BME280;33751;50.816;-1.214;2022-11-15T01:33:53;100176.40;;;14.85;100.00
47983;BME280;33751;50.816;-1.214;2022-11-15T01:36:21;100171.19;;;15.18;100.00
47983;BME280;33751;50.816;-1.214;2022-11-15T01:38:53;100159.52;;;15.53;100.00
47983;BME280;33751;50.816;-1.214;2022-11-15T01:41:22;100163.70;;;15.28;100.00
47983;BME280;33751;50.816;-1.214;2022-11-15T01:43:52;100167.54;;;15.02;100.00
47983;BME280;33751;50.816;-1.214;2022-11-15T01:46:27;100158.97;;;15.27;100.00
47983;BME280;33751;50.816;-1.214;2022-11-15T01:48:57;100155.36;;;15.53;100.00
47983;BME280;33751;50.816;-1.214;2022-11-15T01:51:29;100151.30;;;14.96;100.00
47983;BME280;33751;50.816;-1.214;2022-11-15T01:53:59;100149.17;;;15.27;100.00
47983;BME280;33751;50.816;-1.214;2022-11-15T01:56:30;100143.30;;;14.92;100.00
47983;BME280;33751;50.816;-1.214;2022-11-15T01:58:59;100141.48;;;15.07;100.00
47983;BME280;33751;50.816;-1.214;2022-11-15T02:01:31;100137.72;;;15.68;100.00
47983;BME280;33751;50.816;-1.214;2022-11-15T02:04:04;100142.11;;;15.05;100.00
47983;BME280;33751;50.816;-1.214;2022-11-15T02:06:34;100138.40;;;15.38;100.00
47983;BME280;33751;50.816;-1.214;2022-11-15T02:09:03;100130.59;;;15.31;100.00
47983;BME280;33751;50.816;-1.214;2022-11-15T02:11:31;100129.10;;;15.51;100.00
47983;BME280;33751;50.816;-1.214;2022-11-15T02:13:59;100119.18;;;15.44;100.00
47983;BME280;33751;50.816;-1.214;2022-11-15T02:16:31;100109.68;;;15.35;100.00
47983;BME280;33751;50.816;-1.214;2022-11-15T02:19:08;100096.26;;;15.04;100.00
47983;BME280;33751;50.816;-1.214;2022-11-15T02:21:44;100099.05;;;15.06;100.00
47983;BME280;33751;50.816;-1.214;2022-11-15T02:24:28;100093.67;;;15.00;100.00
47983;BME280;33751;50.816;-1.214;2022-11-15T02:27:23;100084.10;;;14.91;100.00
47983;BME280;33751;50.816;-1.214;2022-11-15T02:30:19;100073.04;;;15.19;100.00
47983;BME280;33751;50.816;-1.214;2022-11-15T02:32:49;100069.99;;;15.27;100.00
47983;BME280;33751;50.816;-1.214;2022-11-15T02:35:24;100071.51;;;15.16;100.00
47983;BME280;33751;50.816;-1.214;2022-11-15T02:37:58;100064.57;;;15.24;100.00
47983;BME280;33751;50.816;-1.214;2022-11-15T02:40:34;100055.46;;;14.92;100.00
47983;BME280;33751;50.816;-1.214;2022-11-15T02:43:08;100049.37;;;14.97;100.00
47983;BME280;33751;50.816;-1.214;2022-11-15T02:45:40;100045.33;;;15.09;100.00
47983;BME280;33751;50.816;-1.214;2022-11-15T02:48:10;100038.09;;;15.06;100.00
47983;BME280;33751;50.816;-1.214;2022-11-15T02:50:38;100033.66;;;14.89;100.00
47983;BME280;33751;50.816;-1.214;2022-11-15T02:53:05;100041.30;;;15.22;100.00
47983;BME280;33751;50.816;-1.214;2022-11-15T02:55:34;100037.80;;;15.00;100.00
47983;BME280;33751;50.816;-1.214;2022-11-15T02:58:15;100030.57;;;15.13;100.00
47983;BME280;33751;50.816;-1.214;2022-11-15T03:00:51;100029.29;;;15.17;100.00
47983;BME280;33751;50.816;-1.214;2022-11-15T03:03:35;100025.95;;;15.14;100.00
47983;BME280;33751;50.816;-1.214;2022-11-15T03:06:12;100023.26;;;14.94;100.00
47983;BME280;33751;50.816;-1.214;2022-11-15T03:08:50;100015.32;;;15.07;100.00
47983;BME280;33751;50.816;-1.214;2022-11-15T03:11:21;100007.05;;;15.46;100.00
47983;BME280;33751;50.816;-1.214;2022-11-15T03:13:55;100001.08;;;14.69;100.00
47983;BME280;33751;50.816;-1.214;2022-11-15T03:16:27;99981.77;;;14.99;100.00
47983;BME280;33751;50.816;-1.214;2022-11-15T03:18:59;99990.39;;;15.01;100.00
47983;BME280;33751;50.816;-1.214;2022-11-15T03:21:31;99988.29;;;15.15;100.00
47983;BME280;33751;50.816;-1.214;2022-11-15T03:24:02;99978.70;;;15.06;100.00
47983;BME280;33751;50.816;-1.214;2022-11-15T03:26:33;99978.48;;;14.57;100.00
47983;BME280;33751;50.816;-1.214;2022-11-15T03:29:04;99971.52;;;14.98;100.00
47983;BME280;33751;50.816;-1.214;2022-11-15T03:31:36;99965.74;;;15.00;100.00
47983;BME280;33751;50.816;-1.214;2022-11-15T03:34:07;99960.13;;;15.27;100.00
47983;BME280;33751;50.816;-1.214;2022-11-15T03:36:37;99959.38;;;14.90;100.00
47983;BME280;33751;50.816;-1.214;2022-11-15T03:39:06;99952.69;;;15.02;100.00
47983;BME280;33751;50.816;-1.214;2022-11-15T03:41:37;99945.22;;;15.06;100.00
47983;BME280;33751;50.816;-1.214;2022-11-15T03:44:12;99939.12;;;15.00;100.00
47983;BME280;33751;50.816;-1.214;2022-11-15T03:46:47;99933.46;;;14.80;100.00
47983;BME280;33751;50.816;-1.214;2022-11-15T03:49:24;99930.55;;;14.70;100.00
47983;BME280;33751;50.816;-1.214;2022-11-15T03:51:52;99923.65;;;14.95;100.00
47983;BME280;33751;50.816;-1.214;2022-11-15T03:54:18;99920.75;;;14.81;100.00
47983;BME280;33751;50.816;-1.214;2022-11-15T03:56:45;99911.91;;;14.63;100.00
47983;BME280;33751;50.816;-1.214;2022-11-15T03:59:12;99900.57;;;14.60;100.00
47983;BME280;33751;50.816;-1.214;2022-11-15T04:01:38;99903.68;;;14.72;100.00
47983;BME280;33751;50.816;-1.214;2022-11-15T04:04:04;99891.97;;;15.04;100.00
47983;BME280;33751;50.816;-1.214;2022-11-15T04:06:32;99891.77;;;14.63;100.00
47983;BME280;33751;50.816;-1.214;2022-11-15T04:08:59;99885.89;;;14.59;100.00
47983;BME280;33751;50.816;-1.214;2022-11-15T04:11:26;99875.76;;;14.89;100.00
47983;BME280;33751;50.816;-1.214;2022-11-15T04:13:52;99878.41;;;14.57;100.00
47983;BME280;33751;50.816;-1.214;2022-11-15T04:16:19;99861.89;;;14.44;100.00
47983;BME280;33751;50.816;-1.214;2022-11-15T04:18:45;99857.54;;;14.84;100.00
47983;BME280;33751;50.816;-1.214;2022-11-15T04:21:12;99848.51;;;14.56;100.00
47983;BME280;33751;50.816;-1.214;2022-11-15T04:23:39;99842.51;;;14.67;100.00
47983;BME280;33751;50.816;-1.214;2022-11-15T04:26:07;99841.59;;;14.84;100.00
47983;BME280;33751;50.816;-1.214;2022-11-15T04:28:36;99833.91;;;14.68;100.00
47983;BME280;33751;50.816;-1.214;2022-11-15T04:31:03;99834.38;;;14.65;100.00
47983;BME280;33751;50.816;-1.214;2022-11-15T04:33:30;99824.78;;;14.44;100.00
47983;BME280;33751;50.816;-1.214;2022-11-15T04:35:56;99817.97;;;14.69;100.00
47983;BME280;33751;50.816;-1.214;2022-11-15T04:38:23;99804.80;;;14.73;100.00
47983;BME280;33751;50.816;-1.214;2022-11-15T04:40:50;99798.54;;;14.35;100.00
47983;BME280;33751;50.816;-1.214;2022-11-15T04:43:16;99799.61;;;14.39;100.00
47983;BME280;33751;50.816;-1.214;2022-11-15T04:45:43;99798.33;;;14.23;100.00
47983;BME280;33751;50.816;-1.214;2022-11-15T04:48:10;99786.11;;;14.71;100.00
47983;BME280;33751;50.816;-1.214;2022-11-15T04:50:37;99773.46;;;14.36;100.00
47983;BME280;33751;50.816;-1.214;2022-11-15T04:53:04;99776.06;;;14.75;100.00
47983;BME280;33751;50.816;-1.214;2022-11-15T04:55:31;99775.55;;;14.52;100.00
47983;BME280;33751;50.816;-1.214;2022-11-15T04:57:58;99773.15;;;14.82;100.00
47983;BME280;33751;50.816;-1.214;2022-11-15T05:00:26;99765.15;;;14.84;100.00
47983;BME280;33751;50.816;-1.214;2022-11-15T05:02:54;99758.68;;;14.70;100.00
47983;BME280;33751;50.816;-1.214;2022-11-15T05:05:21;99757.91;;;14.61;100.00
47983;BME280;33751;50.816;-1.214;2022-11-15T05:07:48;99750.08;;;14.57;100.00
47983;BME280;33751;50.816;-1.214;2022-11-15T05:10:15;99738.67;;;14.58;100.00
47983;BME280;33751;50.816;-1.214;2022-11-15T05:12:42;99733.62;;;14.72;100.00
47983;BME280;33751;50.816;-1.214;2022-11-15T05:15:09;99725.74;;;14.51;100.00
47983;BME280;33751;50.816;-1.214;2022-11-15T05:17:37;99724.85;;;14.45;100.00
47983;BME280;33751;50.816;-1.214;2022-11-15T05:20:04;99718.87;;;14.37;100.00
47983;BME280;33751;50.816;-1.214;2022-11-15T05:22:31;99713.07;;;14.51;100.00
47983;BME280;33751;50.816;-1.214;2022-11-15T05:24:58;99698.55;;;14.82;100.00
47983;BME280;33751;50.816;-1.214;2022-11-15T05:27:24;99698.51;;;14.67;100.00
47983;BME280;33751;50.816;-1.214;2022-11-15T05:29:51;99697.77;;;14.57;100.00
47983;BME280;33751;50.816;-1.214;2022-11-15T05:32:18;99686.41;;;14.68;100.00
47983;BME280;33751;50.816;-1.214;2022-11-15T05:34:45;99678.91;;;14.51;100.00
47983;BME280;33751;50.816;-1.214;2022-11-15T05:37:12;99668.63;;;14.78;100.00
47983;BME280;33751;50.816;-1.214;2022-11-15T05:39:39;99662.55;;;14.59;100.00
47983;BME280;33751;50.816;-1.214;2022-11-15T05:42:08;99656.76;;;15.05;100.00
47983;BME280;33751;50.816;-1.214;2022-11-15T05:44:36;99661.18;;;14.61;100.00
47983;BME280;33751;50.816;-1.214;2022-11-15T05:47:04;99652.33;;;14.62;100.00
47983;BME280;33751;50.816;-1.214;2022-11-15T05:49:36;99645.04;;;14.41;100.00
47983;BME280;33751;50.816;-1.214;2022-11-15T05:52:05;99640.70;;;14.76;100.00
47983;BME280;33751;50.816;-1.214;2022-11-15T05:54:35;99645.19;;;14.76;100.00
47983;BME280;33751;50.816;-1.214;2022-11-15T05:57:04;99635.85;;;14.99;100.00
47983;BME280;33751;50.816;-1.214;2022-11-15T05:59:31;99633.18;;;14.80;100.00
47983;BME280;33751;50.816;-1.214;2022-11-15T06:02:00;99625.43;;;14.74;100.00
47983;BME280;33751;50.816;-1.214;2022-11-15T06:04:27;99613.71;;;14.72;100.00
47983;BME280;33751;50.816;-1.214;2022-11-15T06:06:54;99621.17;;;14.54;100.00
47983;BME280;33751;50.816;-1.214;2022-11-15T06:09:21;99619.74;;;14.83;100.00
47983;BME280;33751;50.816;-1.214;2022-11-15T06:11:47;99626.00;;;14.88;100.00
47983;BME280;33751;50.816;-1.214;2022-11-15T06:14:14;99607.58;;;14.51;100.00
47983;BME280;33751;50.816;-1.214;2022-11-15T06:16:41;99613.87;;;14.77;100.00
47983;BME280;33751;50.816;-1.214;2022-11-15T06:19:08;99610.27;;;14.81;100.00
47983;BME280;33751;50.816;-1.214;2022-11-15T06:21:35;99605.79;;;14.84;100.00
47983;BME280;33751;50.816;-1.214;2022-11-15T06:24:02;99596.63;;;14.66;100.00
47983;BME280;33751;50.816;-1.214;2022-11-15T06:26:28;99606.03;;;14.78;100.00
47983;BME280;33751;50.816;-1.214;2022-11-15T06:28:55;99591.82;;;15.02;100.00
47983;BME280;33751;50.816;-1.214;2022-11-15T06:31:23;99594.30;;;14.67;100.00
47983;BME280;33751;50.816;-1.214;2022-11-15T06:33:49;99588.43;;;14.66;100.00
47983;BME280;33751;50.816;-1.214;2022-11-15T06:36:16;99586.33;;;14.74;100.00
47983;BME280;33751;50.816;-1.214;2022-11-15T06:38:44;99584.28;;;15.02;100.00
47983;BME280;33751;50.816;-1.214;2022-11-15T06:41:11;99573.50;;;15.19;100.00
47983;BME280;33751;50.816;-1.214;2022-11-15T06:43:39;99577.49;;;14.80;100.00
47983;BME280;33751;50.816;-1.214;2022-11-15T06:46:06;99578.70;;;14.73;100.00
47983;BME280;33751;50.816;-1.214;2022-11-15T06:48:34;99576.85;;;15.12;100.00
47983;BME280;33751;50.816;-1.214;2022-11-15T06:51:03;99578.61;;;14.87;100.00
47983;BME280;33751;50.816;-1.214;2022-11-15T06:53:30;99568.07;;;15.01;100.00
47983;BME280;33751;50.816;-1.214;2022-11-15T06:55:58;99573.58;;;15.11;100.00
47983;BME280;33751;50.816;-1.214;2022-11-15T06:58:25;99586.60;;;14.84;100.00
47983;BME280;33751;50.816;-1.214;2022-11-15T07:00:53;99580.61;;;15.07;100.00
47983;BME280;33751;50.816;-1.214;2022-11-15T07:03:20;99576.45;;;15.38;100.00
47983;BME280;33751;50.816;-1.214;2022-11-15T07:05:51;99572.32;;;15.22;100.00
47983;BME280;33751;50.816;-1.214;2022-11-15T07:08:18;99561.34;;;14.92;100.00
47983;BME280;33751;50.816;-1.214;2022-11-15T07:10:44;99566.55;;;15.17;100.00
47983;BME280;33751;50.816;-1.214;2022-11-15T07:13:11;99562.44;;;15.20;100.00
47983;BME280;33751;50.816;-1.214;2022-11-15T07:15:38;99564.33;;;15.06;100.00
47983;BME280;33751;50.816;-1.214;2022-11-15T07:18:04;99559.08;;;15.22;100.00
47983;BME280;33751;50.816;-1.214;2022-11-15T07:20:31;99552.97;;;15.04;100.00
47983;BME280;33751;50.816;-1.214;2022-11-15T07:22:59;99552.73;;;14.95;100.00
47983;BME280;33751;50.816;-1.214;2022-11-15T07:25:27;99545.63;;;14.77;100.00
47983;BME280;33751;50.816;-1.214;2022-11-15T07:27:54;99539.60;;;15.00;100.00
47983;BME280;33751;50.816;-1.214;2022-11-15T07:30:22;99530.77;;;15.34;100.00
47983;BME280;33751;50.816;-1.214;2022-11-15T07:32:52;99532.76;;;15.10;100.00
47983;BME280;33751;50.816;-1.214;2022-11-15T07:35:19;99527.95;;;15.36;100.00
47983;BME280;33751;50.816;-1.214;2022-11-15T07:37:53;99525.46;;;15.31;100.00
47983;BME280;33751;50.816;-1.214;2022-11-15T07:40:20;99523.94;;;15.16;100.00
47983;BME280;33751;50.816;-1.214;2022-11-15T07:42:47;99526.36;;;15.18;100.00
47983;BME280;33751;50.816;-1.214;2022-11-15T07:45:14;99524.74;;;14.76;100.00
47983;BME280;33751;50.816;-1.214;2022-11-15T07:47:45;99518.68;;;15.37;100.00
47983;BME280;33751;50.816;-1.214;2022-11-15T07:50:12;99514.04;;;15.12;100.00
47983;BME280;33751;50.816;-1.214;2022-11-15T07:52:39;99508.73;;;15.41;100.00
47983;BME280;33751;50.816;-1.214;2022-11-15T07:55:07;99507.32;;;15.01;100.00
47983;BME280;33751;50.816;-1.214;2022-11-15T07:57:34;99507.28;;;15.08;100.00
47983;BME280;33751;50.816;-1.214;2022-11-15T08:00:01;99495.97;;;15.17;100.00
47983;BME280;33751;50.816;-1.214;2022-11-15T08:02:28;99505.40;;;15.07;100.00
47983;BME280;33751;50.816;-1.214;2022-11-15T08:04:55;99503.34;;;14.91;100.00
47983;BME280;33751;50.816;-1.214;2022-11-15T08:07:21;99507.78;;;14.97;100.00
47983;BME280;33751;50.816;-1.214;2022-11-15T08:09:48;99488.88;;;15.16;100.00
47983;BME280;33751;50.816;-1.214;2022-11-15T08:12:15;99484.54;;;14.90;100.00
47983;BME280;33751;50.816;-1.214;2022-11-15T08:14:41;99487.05;;;15.18;100.00
47983;BME280;33751;50.816;-1.214;2022-11-15T08:17:08;99492.79;;;15.15;100.00
47983;BME280;33751;50.816;-1.214;2022-11-15T08:19:34;99482.52;;;15.27;100.00
47983;BME280;33751;50.816;-1.214;2022-11-15T08:22:01;99487.87;;;15.12;100.00
47983;BME280;33751;50.816;-1.214;2022-11-15T08:24:27;99486.23;;;14.92;100.00
47983;BME280;33751;50.816;-1.214;2022-11-15T08:26:54;99470.08;;;14.59;100.00
47983;BME280;33751;50.816;-1.214;2022-11-15T08:29:20;99474.73;;;15.23;100.00
47983;BME280;33751;50.816;-1.214;2022-11-15T08:31:47;99466.07;;;15.33;100.00
47983;BME280;33751;50.816;-1.214;2022-11-15T08:34:14;99459.38;;;15.34;100.00
47983;BME280;33751;50.816;-1.214;2022-11-15T08:36:41;99450.78;;;14.99;100.00
47983;BME280;33751;50.816;-1.214;2022-11-15T08:39:10;99443.62;;;15.16;100.00
47983;BME280;33751;50.816;-1.214;2022-11-15T08:41:38;99447.58;;;15.31;100.00
47983;BME280;33751;50.816;-1.214;2022-11-15T08:44:05;99442.69;;;14.88;100.00
47983;BME280;33751;50.816;-1.214;2022-11-15T08:46:32;99436.13;;;15.19;100.00
47983;BME280;33751;50.816;-1.214;2022-11-15T08:48:59;99425.87;;;15.26;100.00
47983;BME280;33751;50.816;-1.214;2022-11-15T08:51:25;99429.08;;;15.38;100.00
47983;BME280;33751;50.816;-1.214;2022-11-15T08:53:52;99421.30;;;15.15;100.00
47983;BME280;33751;50.816;-1.214;2022-11-15T08:56:19;99417.95;;;15.24;100.00
47983;BME280;33751;50.816;-1.214;2022-11-15T08:58:45;99416.53;;;15.30;100.00
47983;BME280;33751;50.816;-1.214;2022-11-15T09:01:16;99404.22;;;15.37;100.00
47983;BME280;33751;50.816;-1.214;2022-11-15T09:03:43;99400.08;;;15.22;100.00
47983;BME280;33751;50.816;-1.214;2022-11-15T09:06:11;99393.48;;;15.40;100.00
47983;BME280;33751;50.816;-1.214;2022-11-15T09:08:38;99388.94;;;15.44;100.00
47983;BME280;33751;50.816;-1.214;2022-11-15T09:11:06;99397.23;;;15.39;100.00
47983;BME280;33751;50.816;-1.214;2022-11-15T09:13:33;99390.05;;;15.35;100.00
47983;BME280;33751;50.816;-1.214;2022-11-15T09:16:01;99388.41;;;15.22;100.00
47983;BME280;33751;50.816;-1.214;2022-11-15T09:18:28;99382.32;;;15.20;100.00
47983;BME280;33751;50.816;-1.214;2022-11-15T09:20:57;99372.67;;;15.16;100.00
47983;BME280;33751;50.816;-1.214;2022-11-15T09:23:25;99371.23;;;15.12;100.00
47983;BME280;33751;50.816;-1.214;2022-11-15T09:25:58;99372.50;;;15.50;100.00
47983;BME280;33751;50.816;-1.214;2022-11-15T09:28:26;99364.48;;;15.76;100.00
47983;BME280;33751;50.816;-1.214;2022-11-15T09:30:56;99370.79;;;15.52;100.00
47983;BME280;33751;50.816;-1.214;2022-11-15T09:33:23;99361.42;;;15.33;100.00
47983;BME280;33751;50.816;-1.214;2022-11-15T09:35:50;99350.70;;;15.39;100.00
47983;BME280;33751;50.816;-1.214;2022-11-15T09:38:17;99342.56;;;15.35;100.00
47983;BME280;33751;50.816;-1.214;2022-11-15T09:40:46;99346.29;;;15.21;100.00
47983;BME280;33751;50.816;-1.214;2022-11-15T09:43:30;99334.32;;;15.13;100.00
47983;BME280;33751;50.816;-1.214;2022-11-15T09:46:08;99328.49;;;15.63;100.00
47983;BME280;33751;50.816;-1.214;2022-11-15T09:48:48;99321.39;;;15.15;100.00
47983;BME280;33751;50.816;-1.214;2022-11-15T09:51:24;99317.35;;;15.41;100.00
47983;BME280;33751;50.816;-1.214;2022-11-15T09:54:02;99313.64;;;15.53;100.00
47983;BME280;33751;50.816;-1.214;2022-11-15T09:56:39;99317.92;;;15.56;100.00
47983;BME280;33751;50.816;-1.214;2022-11-15T09:59:21;99306.58;;;15.70;100.00
47983;BME280;33751;50.816;-1.214;2022-11-15T10:01:58;99297.74;;;15.51;100.00
47983;BME280;33751;50.816;-1.214;2022-11-15T10:04:29;99305.60;;;15.50;100.00
47983;BME280;33751;50.816;-1.214;2022-11-15T10:07:02;99302.58;;;15.56;100.00
47983;BME280;33751;50.816;-1.214;2022-11-15T10:09:36;99299.94;;;15.67;100.00
47983;BME280;33751;50.816;-1.214;2022-11-15T10:12:04;99299.91;;;15.74;100.00
47983;BME280;33751;50.816;-1.214;2022-11-15T10:14:31;99292.50;;;15.50;100.00
47983;BME280;33751;50.816;-1.214;2022-11-15T10:17:12;99290.30;;;15.52;100.00
47983;BME280;33751;50.816;-1.214;2022-11-15T10:19:50;99291.44;;;15.46;100.00
47983;BME280;33751;50.816;-1.214;2022-11-15T10:22:26;99296.60;;;15.83;100.00
47983;BME280;33751;50.816;-1.214;2022-11-15T10:25:09;99292.81;;;15.68;100.00
47983;BME280;33751;50.816;-1.214;2022-11-15T10:27:37;99294.12;;;15.61;100.00
47983;BME280;33751;50.816;-1.214;2022-11-15T10:30:12;99284.19;;;15.36;100.00
47983;BME280;33751;50.816;-1.214;2022-11-15T10:32:40;99283.27;;;15.94;100.00
47983;BME280;33751;50.816;-1.214;2022-11-15T10:35:26;99278.73;;;15.86;100.00
47983;BME280;33751;50.816;-1.214;2022-11-15T10:38:05;99273.32;;;15.33;100.00
47983;BME280;33751;50.816;-1.214;2022-11-15T10:40:32;99269.91;;;15.33;100.00
47983;BME280;33751;50.816;-1.214;2022-11-15T10:43:06;99262.42;;;15.55;100.00
47983;BME280;33751;50.816;-1.214;2022-11-15T10:45:38;99264.73;;;15.69;100.00
47983;BME280;33751;50.816;-1.214;2022-11-15T10:48:24;99245.48;;;15.62;100.00
47983;BME280;33751;50.816;-1.214;2022-11-15T10:50:52;99238.53;;;16.03;100.00
47983;BME280;33751;50.816;-1.214;2022-11-15T10:53:27;99233.71;;;15.85;100.00
47983;BME280;33751;50.816;-1.214;2022-11-15T10:55:57;99224.12;;;15.75;100.00
47983;BME280;33751;50.816;-1.214;2022-11-15T10:58:32;99218.73;;;16.09;100.00
47983;BME280;33751;50.816;-1.214;2022-11-15T11:01:17;99206.61;;;15.69;100.00
47983;BME280;33751;50.816;-1.214;2022-11-15T11:03:58;99208.53;;;16.08;100.00
47983;BME280;33751;50.816;-1.214;2022-11-15T11:06:25;99197.87;;;16.02;100.00
47983;BME280;33751;50.816;-1.214;2022-11-15T11:08:55;99188.87;;;15.89;100.00
47983;BME280;33751;50.816;-1.214;2022-11-15T11:11:22;99180.16;;;16.21;100.00
47983;BME280;33751;50.816;-1.214;2022-11-15T11:13:49;99177.16;;;15.81;100.00
47983;BME280;33751;50.816;-1.214;2022-11-15T11:16:26;99162.77;;;16.02;100.00
47983;BME280;33751;50.816;-1.214;2022-11-15T11:19:04;99160.41;;;16.18;100.00
47983;BME280;33751;50.816;-1.214;2022-11-15T11:21:43;99156.04;;;15.94;100.00
47983;BME280;33751;50.816;-1.214;2022-11-15T11:24:19;99159.37;;;16.11;100.00
47983;BME280;33751;50.816;-1.214;2022-11-15T11:26:59;99163.12;;;16.09;100.00
47983;BME280;33751;50.816;-1.214;2022-11-15T11:29:39;99168.45;;;16.24;100.00
47983;BME280;33751;50.816;-1.214;2022-11-15T11:32:24;99174.79;;;16.12;100.00
47983;BME280;33751;50.816;-1.214;2022-11-15T11:35:01;99171.09;;;16.26;100.00
47983;BME280;33751;50.816;-1.214;2022-11-15T11:37:36;99163.08;;;16.26;100.00
47983;BME280;33751;50.816;-1.214;2022-11-15T11:40:18;99164.81;;;16.21;100.00
47983;BME280;33751;50.816;-1.214;2022-11-15T11:42:53;99169.38;;;16.77;100.00
47983;BME280;33751;50.816;-1.214;2022-11-15T11:45:27;99173.31;;;16.71;100.00
47983;BME280;33751;50.816;-1.214;2022-11-15T11:48:03;99171.87;;;17.28;100.00
47983;BME280;33751;50.816;-1.214;2022-11-15T11:50:37;99174.96;;;17.00;100.00
47983;BME280;33751;50.816;-1.214;2022-11-15T11:53:11;99181.98;;;16.85;100.00
47983;BME280;33751;50.816;-1.214;2022-11-15T11:55:41;99185.98;;;16.99;100.00
47983;BME280;33751;50.816;-1.214;2022-11-15T11:58:14;99191.40;;;16.82;100.00
47983;BME280;33751;50.816;-1.214;2022-11-15T12:00:47;99196.38;;;16.84;100.00
47983;BME280;33751;50.816;-1.214;2022-11-15T12:03:25;99211.93;;;17.04;100.00
47983;BME280;33751;50.816;-1.214;2022-11-15T12:05:56;99213.85;;;17.02;100.00
47983;BME280;33751;50.816;-1.214;2022-11-15T12:08:31;99210.66;;;17.05;100.00
47983;BME280;33751;50.816;-1.214;2022-11-15T12:11:06;99217.29;;;16.92;100.00
47983;BME280;33751;50.816;-1.214;2022-11-15T12:13:36;99207.49;;;17.37;100.00
47983;BME280;33751;50.816;-1.214;2022-11-15T12:16:11;99216.33;;;17.38;100.00
47983;BME280;33751;50.816;-1.214;2022-11-15T12:18:41;99217.51;;;17.52;100.00
47983;BME280;33751;50.816;-1.214;2022-11-15T12:21:16;99215.28;;;17.80;100.00
47983;BME280;33751;50.816;-1.214;2022-11-15T12:23:50;99224.97;;;17.42;100.00
47983;BME280;33751;50.816;-1.214;2022-11-15T12:26:21;99216.24;;;17.54;100.00
47983;BME280;33751;50.816;-1.214;2022-11-15T12:28:53;99228.50;;;17.56;100.00
47983;BME280;33751;50.816;-1.214;2022-11-15T12:31:24;99234.60;;;17.63;100.00
47983;BME280;33751;50.816;-1.214;2022-11-15T12:33:55;99231.77;;;17.71;100.00
47983;BME280;33751;50.816;-1.214;2022-11-15T12:36:37;99232.86;;;17.47;100.00
47983;BME280;33751;50.816;-1.214;2022-11-15T12:39:05;99239.01;;;17.20;100.00
47983;BME280;33751;50.816;-1.214;2022-11-15T12:41:34;99237.83;;;17.32;100.00
47983;BME280;33751;50.816;-1.214;2022-11-15T12:44:01;99249.55;;;17.33;100.00
47983;BME280;33751;50.816;-1.214;2022-11-15T12:47:01;99245.04;;;17.22;100.00
47983;BME280;33751;50.816;-1.214;2022-11-15T12:49:45;99248.64;;;17.18;100.00
47983;BME280;33751;50.816;-1.214;2022-11-15T12:52:13;99246.38;;;17.63;100.00